The Dalles, OR

6:16 AM PDT on September 21, 2014 (GMT -0700)
17th and Jefferson ST | Change Station
CLOSE
Current Station
Personal Weather Station
Location: The Dalles, OR
Elevation: 486 ft
Nearby Weather Stations

Elev 486 ft 45.59 °N, 121.19 °W | Updated 6 seconds ago

Clear
Clear
57.4 °F
Feels Like 57.4 °F
N
0.0
Wind Variable Wind from SW
Gusts 0.0 mph

Today
High -- | Low -- °F
--% Chance of Precip.
Yesterday
High -- | Low -- °F
Precip. -- in
6:50 AM 7:04 PM
Waning Crescent, 7% visible
Pressure 29.92 in
Visibility 10.0 miles
Clouds Clear
Dew Point 49 °F
Humidity 74%
Rainfall 0.00 in
Snow Depth 1 in , 0 in , 0 in
UV 0.0 out of 12
Pollen 2.70 out of 12
Air Quality Not available.
Flu Activity Not available.
METAR KDLS 211253Z AUTO 00000KT 10SM CLR 13/08 A2992 RMK AO2 SLP132 T01330078

More Conditions Fewer Conditions

Pressure 29.92 in
Visibility 10.0 miles
Clouds Clear
Dew Point 49 °F
Humidity 74%
Rainfall 0.00 in
Snow Depth 1 in , 0 in , 0 in
UV 0.0 out of 12
Pollen 2.70 out of 12
Air Quality Not available.
Flu Activity Not available.
METAR KDLS 211253Z AUTO 00000KT 10SM CLR 13/08 A2992 RMK AO2 SLP132 T01330078

More Conditions Fewer Conditions

10-Day Weather Forecast

Almanac

Astronomy

Sep. 21, 2014 Rise Set
Actual Time 6:50 AM PDT 7:04 PM PDT
Civil Twilight 6:21 AM PDT 7:33 PM PDT
Nautical Twilight 5:46 AM PDT 8:08 PM PDT
Astronomical Twilight 5:10 AM PDT 8:44 PM PDT
Moon 4:23 AM PDT 5:47 PM PDT
Length of Visible Light 13h 12m
Length of Day
12h 13m
Tomorrow will be 3m 10s shorter.
Waning Crescent, 7% of the Moon is Illuminated
Today
Waning Crescent
Sep 24
New
Oct 1
First Quarter
Oct 8
Full
Oct 15
Last Quarter

Today's Extremes

State Highs State Lows

Community

WunderPhotos

Upload Photos

1,755,136 photos uploaded!

WunderBlogs® & News

Nearby

Snow Depth

Station Depth Elevation
Clear Lake 1 in 3500 ft
Irish Taylor 0 in 5500 ft
Holland Meadows 0 in 4900 ft
Daly Lake 0 in 3600 ft
Strawberry 0 in 5760 ft

Earthquake Activity

City Distance Mag. Time & Date
No recent earthquake activity has been reported nearby.
Minimum magnitude displayed is 2.5.

Coastal Water Temperatures

Place Temperature
No Stations Reporting

Nearby Weather Stations